Terminal Aerodrome Forecast
Issued by NWS Omaha/Valley, NE

Home | Current Version | Previous Version | Graphics & Text | Print | Product List | Glossary On
Versions: 1 2 3 4 5 6 7 8 9 10 11 12 13 14 15 16 17 18 19 20 21 22
000
FTUS43 KOAX 221815 AAA
TAFOFK
TAF AMD
KOFK 221815Z 2218/2318 33011KT P6SM OVC004
     FM221900 33011KT P6SM BKN020
     FM222000 33010KT P6SM BKN080
     FM222200 32011KT P6SM SCT200
     FM230600 31005KT P6SM FEW045
     FM230700 31004KT 6SM BR SCT070
     FM231400 15003KT P6SM BKN050=

USA.gov is the U.S. government's official web portal to all federal, state and local government web resources and services.